createdAt,value
2018-08-10T00:58:07.604Z,9.07
2018-08-10T01:00:36.106Z,10.33
2018-08-10T01:03:04.548Z,9.93
2018-08-10T01:05:33.404Z,8.47
2018-08-10T01:08:02.167Z,6.20
2018-08-10T01:10:31.771Z,7.97
2018-08-10T01:13:00.589Z,8.57
2018-08-10T01:15:29.261Z,9.87
2018-08-10T01:17:57.890Z,10.90
2018-08-10T01:20:27.082Z,10.10
2018-08-10T01:23:01.079Z,6.93
2018-08-10T01:25:31.573Z,8.43
2018-08-10T01:28:02.375Z,6.70
2018-08-10T01:30:33.323Z,6.77
2018-08-10T01:33:02.438Z,7.77
2018-08-10T01:35:31.548Z,7.33
2018-08-10T01:38:01.128Z,7.33
2018-08-10T01:40:29.631Z,6.50
2018-08-10T01:42:58.319Z,7.07
2018-08-10T01:45:27.444Z,10.07
2018-08-10T01:47:56.072Z,8.23
2018-08-10T01:50:24.614Z,8.40
2018-08-10T01:52:53.320Z,7.10
2018-08-10T01:55:21.968Z,8.50
2018-08-10T01:57:51.267Z,7.50
2018-08-10T02:00:20.399Z,8.50
2018-08-10T02:02:49.037Z,8.37
2018-08-10T02:05:17.982Z,8.23
2018-08-10T02:07:47.236Z,8.20
2018-08-10T02:10:17.416Z,9.13
2018-08-10T02:12:53.657Z,8.70
2018-08-10T02:15:23.479Z,10.07
2018-08-10T02:17:51.919Z,7.87
2018-08-10T02:20:25.105Z,9.17
2018-08-10T02:22:53.745Z,8.40
2018-08-10T02:25:24.235Z,10.13
2018-08-10T02:27:52.952Z,7.30
2018-08-10T02:30:22.707Z,12.37
2018-08-10T02:32:52.058Z,8.47
2018-08-10T02:35:20.489Z,10.20
2018-08-10T02:37:49.012Z,7.73
2018-08-10T02:40:20.933Z,9.63
2018-08-10T02:42:50.897Z,6.87
2018-08-10T02:45:19.593Z,8.53
2018-08-10T02:47:49.546Z,9.67
2018-08-10T02:50:18.288Z,9.20
2018-08-10T02:52:46.978Z,11.37
2018-08-10T02:55:15.775Z,7.67
2018-08-10T02:57:44.731Z,8.57
2018-08-10T03:00:15.316Z,7.93
2018-08-10T03:02:45.362Z,8.03
2018-08-10T03:05:13.865Z,8.23
2018-08-10T03:07:42.996Z,8.10
2018-08-10T03:10:12.586Z,6.23
2018-08-10T03:12:41.501Z,8.90
2018-08-10T03:15:15.387Z,9.57
2018-08-10T03:17:44.579Z,7.50
2018-08-10T03:20:13.939Z,9.97
2018-08-10T03:22:42.745Z,9.87
2018-08-10T03:25:13.433Z,7.90
2018-08-10T03:27:42.067Z,7.37
2018-08-10T03:30:11.639Z,8.20
2018-08-10T03:32:40.177Z,8.03
2018-08-10T03:35:08.902Z,11.23
2018-08-10T03:37:39.057Z,7.10
2018-08-10T03:40:10.699Z,7.97
2018-08-10T03:42:39.055Z,7.70
2018-08-10T03:45:08.117Z,9.37
2018-08-10T03:47:36.708Z,9.67
2018-08-10T03:50:06.617Z,8.37
2018-08-10T03:52:35.211Z,9.40
2018-08-10T03:55:04.535Z,10.00
2018-08-10T03:57:33.052Z,5.97
2018-08-10T04:00:01.764Z,7.00
2018-08-10T04:02:30.498Z,7.93
2018-08-10T04:04:58.903Z,7.33
2018-08-10T04:07:27.821Z,8.63
2018-08-10T04:09:56.982Z,8.67
2018-08-10T04:12:25.392Z,7.57
2018-08-10T04:14:55.149Z,9.07
2018-08-10T04:17:25.243Z,9.03
2018-08-10T04:19:54.901Z,8.00
2018-08-10T04:22:24.557Z,9.67
2018-08-10T04:24:53.852Z,10.20
2018-08-10T04:27:22.529Z,11.20
2018-08-10T04:29:51.439Z,7.23
2018-08-10T04:32:20.746Z,9.80
2018-08-10T04:34:49.275Z,9.43
2018-08-10T04:37:19.348Z,9.83
2018-08-10T04:39:48.520Z,8.57
2018-08-10T04:42:17.119Z,7.90
2018-08-10T04:44:45.547Z,10.43
2018-08-10T04:47:14.827Z,8.87
2018-08-10T04:49:43.386Z,12.20
2018-08-10T04:52:13.148Z,7.97
2018-08-10T04:54:41.575Z,8.50
2018-08-10T04:57:10.600Z,7.40
2018-08-10T04:59:39.428Z,8.27
2018-08-10T05:02:09.446Z,8.30
2018-08-10T05:04:37.854Z,12.00
2018-08-10T05:07:06.776Z,8.53
2018-08-10T05:09:35.294Z,8.43
2018-08-10T05:12:03.755Z,9.60
2018-08-10T05:14:33.337Z,10.13
2018-08-10T05:17:01.942Z,8.70
2018-08-10T05:19:30.498Z,8.87
2018-08-10T05:21:58.951Z,9.23
2018-08-10T05:24:27.628Z,9.00
2018-08-10T05:26:56.567Z,9.87
2018-08-10T05:29:24.960Z,10.07
2018-08-10T05:31:53.477Z,9.33
2018-08-10T05:34:22.217Z,11.20
2018-08-10T05:36:50.929Z,10.07
2018-08-10T05:39:20.597Z,9.10
2018-08-10T05:41:49.695Z,12.03
2018-08-10T05:44:18.455Z,11.87
2018-08-10T05:46:46.856Z,9.97
2018-08-10T05:49:15.868Z,9.67
2018-08-10T05:51:44.258Z,13.47
2018-08-10T05:54:12.850Z,11.40
2018-08-10T05:56:42.430Z,10.97
2018-08-10T05:59:11.255Z,12.67
2018-08-10T06:01:39.800Z,10.37
2018-08-10T06:04:08.290Z,8.30
2018-08-10T06:06:36.808Z,7.10
2018-08-10T06:09:09.117Z,4.10
2018-08-10T06:11:37.566Z,3.40
2018-08-10T06:14:06.377Z,2.73
2018-08-10T06:16:34.774Z,3.27
2018-08-10T06:19:03.405Z,3.83
2018-08-10T06:21:32.267Z,3.27
2018-08-10T06:24:00.719Z,3.80
2018-08-10T06:26:29.606Z,3.33
2018-08-10T06:28:59.351Z,5.47
2018-08-10T06:31:28.092Z,3.07
2018-08-10T06:33:56.955Z,4.33
2018-08-10T06:36:26.057Z,3.07
2018-08-10T06:38:55.315Z,3.77
2018-08-10T06:41:24.775Z,3.53
2018-08-10T06:43:54.527Z,2.33
2018-08-10T06:46:23.153Z,1.90
2018-08-10T06:48:52.314Z,3.57
2018-08-10T06:51:21.274Z,1.60
2018-08-10T06:53:49.901Z,2.13
2018-08-10T06:56:18.962Z,1.43
2018-08-10T06:58:47.663Z,1.77
2018-08-10T07:01:16.518Z,2.70
2018-08-10T07:03:46.174Z,3.73
2018-08-10T07:06:14.783Z,1.53
2018-08-10T07:08:43.491Z,2.47
2018-08-10T07:11:11.919Z,3.67
2018-08-10T07:13:40.537Z,2.23
2018-08-10T07:16:09.316Z,1.40
2018-08-10T07:18:38.470Z,1.90
2018-08-10T07:21:07.181Z,1.27
2018-08-10T07:23:36.183Z,0.83
2018-08-10T07:26:05.102Z,4.43
2018-08-10T07:28:34.763Z,1.20
2018-08-10T07:31:03.800Z,1.03
2018-08-10T07:33:32.564Z,3.47
2018-08-10T07:36:01.216Z,1.40
2018-08-10T07:38:29.904Z,1.50
2018-08-10T07:40:58.315Z,2.90
2018-08-10T07:43:27.591Z,2.47
2018-08-10T07:45:56.228Z,1.87
2018-08-10T07:48:25.622Z,1.80
2018-08-10T07:50:54.341Z,4.20
2018-08-10T07:53:24.186Z,1.60
2018-08-10T07:55:52.600Z,4.03
2018-08-10T07:58:21.060Z,2.60
2018-08-10T08:00:50.561Z,2.43
2018-08-10T08:03:19.121Z,2.33
2018-08-10T08:05:48.199Z,4.17
2018-08-10T08:08:17.300Z,2.03
2018-08-10T08:10:46.234Z,3.23
2018-08-10T08:13:15.546Z,2.07
2018-08-10T08:15:45.030Z,3.20
2018-08-10T08:18:13.432Z,1.27
2018-08-10T08:21:09.750Z,2.10
2018-08-10T08:23:38.707Z,2.20
2018-08-10T08:26:08.340Z,3.00
2018-08-10T08:28:37.387Z,2.60
2018-08-10T08:31:06.695Z,2.00
2018-08-10T08:33:45.080Z,2.60
2018-08-10T08:36:14.816Z,1.90
2018-08-10T08:40:56.512Z,3.03
2018-08-10T08:44:43.497Z,4.83
2018-08-10T08:47:12.163Z,3.80
2018-08-10T08:49:41.305Z,5.17
2018-08-10T08:52:09.797Z,1.93
2018-08-10T08:55:45.939Z,2.63
2018-08-10T08:58:14.860Z,1.90
2018-08-10T09:00:43.630Z,2.23
2018-08-10T09:03:24.252Z,6.13
2018-08-10T09:05:53.556Z,1.87
2018-08-10T09:08:22.296Z,4.80
2018-08-10T09:10:51.714Z,3.90
2018-08-10T09:13:21.185Z,4.20
2018-08-10T09:15:50.053Z,2.23
2018-08-10T09:18:19.047Z,2.07
2018-08-10T09:20:48.032Z,2.43
2018-08-10T09:23:16.852Z,2.50
2018-08-10T09:25:45.298Z,2.73
2018-08-10T09:28:15.636Z,2.10
2018-08-10T09:30:45.296Z,4.30
2018-08-10T09:33:13.689Z,1.40
2018-08-10T09:35:42.385Z,1.27
2018-08-10T09:38:11.236Z,2.07
2018-08-10T09:40:39.635Z,2.30
2018-08-10T09:43:08.960Z,1.93
2018-08-10T09:45:37.847Z,2.83
2018-08-10T09:48:06.723Z,2.63
2018-08-10T09:50:35.136Z,1.40
2018-08-10T09:53:04.977Z,1.57
2018-08-10T09:55:37.916Z,1.43
2018-08-10T09:58:10.260Z,1.30
2018-08-10T10:00:45.427Z,1.40
2018-08-10T10:03:22.600Z,2.10
2018-08-10T10:05:52.972Z,2.47
2018-08-10T10:08:22.634Z,4.30
2018-08-10T10:10:51.177Z,1.47
2018-08-10T10:13:19.939Z,2.13
2018-08-10T10:15:48.532Z,1.50
2018-08-10T10:18:17.894Z,1.30
2018-08-10T10:20:47.285Z,2.37
2018-08-10T10:23:16.519Z,2.30
2018-08-10T10:25:45.003Z,2.30
2018-08-10T10:28:13.745Z,1.20
2018-08-10T10:30:42.343Z,1.50
2018-08-10T10:33:12.195Z,1.00
2018-08-10T10:35:40.632Z,2.10
2018-08-10T10:38:09.309Z,2.23
2018-08-10T10:40:38.426Z,4.37
2018-08-10T10:43:06.895Z,2.13
2018-08-10T10:45:35.757Z,1.20
2018-08-10T10:48:04.763Z,2.77
2018-08-10T10:50:33.307Z,1.37
2018-08-10T10:53:03.414Z,1.10
2018-08-10T10:55:32.099Z,3.60
2018-08-10T10:58:01.166Z,2.57
2018-08-10T11:00:30.907Z,1.37
2018-08-10T11:02:59.329Z,3.50
2018-08-10T11:05:27.986Z,1.27
2018-08-10T11:07:56.641Z,1.57
2018-08-10T11:10:26.554Z,2.03
2018-08-10T11:12:55.120Z,1.63
2018-08-10T11:15:24.620Z,1.77
2018-08-10T11:17:53.153Z,0.80
2018-08-10T11:20:21.618Z,1.97
2018-08-10T11:22:51.971Z,1.07
2018-08-10T11:25:21.088Z,2.97
2018-08-10T11:27:50.204Z,0.87
2018-08-10T11:30:19.272Z,1.10
2018-08-10T11:32:47.979Z,1.53
2018-08-10T11:35:17.037Z,1.43
2018-08-10T11:37:45.486Z,1.83
2018-08-10T11:40:15.252Z,2.73
2018-08-10T11:42:44.755Z,2.10
2018-08-10T11:45:15.207Z,3.20
2018-08-10T11:47:43.968Z,2.33
2018-08-10T11:50:12.600Z,1.47
2018-08-10T11:52:41.499Z,1.43
2018-08-10T11:55:12.412Z,2.23
2018-08-10T11:57:40.874Z,2.87
2018-08-10T12:00:11.292Z,1.57
2018-08-10T12:02:39.744Z,1.30
2018-08-10T12:05:13.697Z,2.27
2018-08-10T12:07:42.384Z,1.07
2018-08-10T12:10:12.432Z,1.13
2018-08-10T12:12:42.290Z,1.00
2018-08-10T12:15:12.872Z,1.67
2018-08-10T12:17:41.391Z,1.53
2018-08-10T12:20:10.497Z,1.30
2018-08-10T12:22:40.331Z,2.00
2018-08-10T12:25:08.973Z,1.40
2018-08-10T12:27:37.487Z,1.13
2018-08-10T12:30:07.783Z,1.27
2018-08-10T12:32:36.472Z,2.10
2018-08-10T12:35:04.904Z,1.20
2018-08-10T12:37:34.292Z,1.37
2018-08-10T12:40:03.596Z,1.20
2018-08-10T12:42:32.020Z,1.90
2018-08-10T12:45:00.431Z,1.50
2018-08-10T12:47:29.298Z,1.43
2018-08-10T12:49:58.691Z,2.60
2018-08-10T12:52:27.368Z,1.43
2018-08-10T12:54:56.108Z,1.70
2018-08-10T12:57:24.692Z,1.97
2018-08-10T12:59:53.526Z,1.90
2018-08-10T13:02:22.075Z,2.00
2018-08-10T13:04:51.505Z,1.40
2018-08-10T13:07:20.363Z,1.60
2018-08-10T13:09:48.888Z,1.37
2018-08-10T13:12:18.224Z,2.47
2018-08-10T13:14:46.865Z,1.50
2018-08-10T13:17:16.221Z,1.50
2018-08-10T13:19:45.029Z,1.77
2018-08-10T13:22:13.687Z,2.10
2018-08-10T13:24:42.300Z,1.50
2018-08-10T13:27:11.940Z,1.83
2018-08-10T13:29:40.745Z,2.27
2018-08-10T13:32:09.564Z,3.63
2018-08-10T13:34:38.404Z,2.20
2018-08-10T13:37:07.707Z,1.60
2018-08-10T13:39:36.464Z,1.70
2018-08-10T13:42:05.288Z,1.87
2018-08-10T13:44:33.698Z,1.60
2018-08-10T13:47:02.809Z,1.77
2018-08-10T13:49:32.195Z,2.10
2018-08-10T13:52:01.284Z,1.80
2018-08-10T13:54:29.743Z,1.60
2018-08-10T13:56:58.628Z,2.23
2018-08-10T13:59:27.320Z,1.73
2018-08-10T14:01:56.408Z,2.13
2018-08-10T14:04:25.012Z,1.97
2018-08-10T14:06:53.481Z,1.97
2018-08-10T14:09:21.942Z,2.13
2018-08-10T14:11:50.617Z,3.30
2018-08-10T14:14:20.538Z,1.80
2018-08-10T14:16:49.137Z,2.20
2018-08-10T14:19:17.760Z,2.00
2018-08-10T14:21:46.341Z,4.13
2018-08-10T14:24:14.833Z,2.37
2018-08-10T14:26:43.526Z,1.90
2018-08-10T14:29:13.141Z,1.83
2018-08-10T14:31:41.763Z,2.13
2018-08-10T14:34:10.213Z,2.40
2018-08-10T14:36:38.783Z,2.40
2018-08-10T14:39:10.222Z,2.63
2018-08-10T14:41:39.301Z,4.53
2018-08-10T14:44:07.978Z,2.80
2018-08-10T14:46:37.251Z,3.70
2018-08-10T14:49:06.760Z,2.17
2018-08-10T14:51:35.923Z,3.30
2018-08-10T14:54:05.271Z,3.07
2018-08-10T14:56:33.742Z,2.37
2018-08-10T14:59:03.268Z,2.77
2018-08-10T15:01:32.088Z,2.30
2018-08-10T15:04:01.296Z,3.77
2018-08-10T15:06:30.287Z,2.27
2018-08-10T15:08:59.127Z,2.67
2018-08-10T15:11:27.534Z,2.53
2018-08-10T15:13:56.987Z,2.57
2018-08-10T15:16:25.600Z,4.30
2018-08-10T15:18:54.328Z,2.53
2018-08-10T15:21:23.547Z,3.03
2018-08-10T15:23:51.957Z,2.93
2018-08-10T15:26:21.092Z,3.07
2018-08-10T15:28:49.741Z,4.03
2018-08-10T15:31:18.359Z,6.20
2018-08-10T15:33:46.843Z,3.23
2018-08-10T15:36:15.432Z,4.67
2018-08-10T15:38:44.132Z,3.67
2018-08-10T15:41:12.860Z,3.90
2018-08-10T15:43:42.756Z,2.93
2018-08-10T15:46:12.915Z,4.07
2018-08-10T15:48:41.768Z,4.17
2018-08-10T15:51:10.221Z,4.27
2018-08-10T15:53:39.722Z,4.90
2018-08-10T15:56:08.729Z,5.20
2018-08-10T15:58:37.503Z,4.30
2018-08-10T16:01:06.453Z,4.17
2018-08-10T16:03:35.056Z,4.70
2018-08-10T16:06:04.082Z,4.13
2018-08-10T16:08:33.571Z,5.53
2018-08-10T16:11:02.778Z,3.90
2018-08-10T16:13:31.662Z,3.93
2018-08-10T16:16:00.749Z,3.67
2018-08-10T16:18:29.394Z,4.27
2018-08-10T16:20:58.443Z,4.53
2018-08-10T16:23:27.398Z,4.03
2018-08-10T16:25:56.148Z,4.93
2018-08-10T16:28:24.997Z,3.97
2018-08-10T16:30:53.574Z,3.37
2018-08-10T16:33:22.233Z,4.17
2018-08-10T16:35:50.841Z,3.53
2018-08-10T16:38:19.406Z,4.60
2018-08-10T16:40:47.891Z,4.40
2018-08-10T16:43:17.035Z,5.13
2018-08-10T16:45:45.693Z,5.13
2018-08-10T16:48:15.311Z,4.30
2018-08-10T16:50:44.416Z,4.33
2018-08-10T16:53:20.807Z,4.20
2018-08-10T16:55:50.180Z,4.93
2018-08-10T16:58:19.100Z,4.70
2018-08-10T17:00:47.931Z,5.07
2018-08-10T17:03:16.523Z,5.03
2018-08-10T17:05:45.055Z,6.07
2018-08-10T17:08:14.233Z,4.70
2018-08-10T17:10:43.773Z,5.53
2018-08-10T17:13:12.498Z,5.40
2018-08-10T17:15:41.777Z,6.50
2018-08-10T17:18:10.336Z,5.70
2018-08-10T17:20:38.774Z,6.10
2018-08-10T17:23:41.198Z,6.43
2018-08-10T17:26:10.094Z,6.73
2018-08-10T17:28:38.991Z,6.77
2018-08-10T17:31:07.765Z,6.90
2018-08-10T17:33:36.291Z,7.40
2018-08-10T17:36:04.928Z,6.97
2018-08-10T17:38:33.582Z,7.43
2018-08-10T17:41:02.557Z,7.40
2018-08-10T17:43:31.224Z,7.10
2018-08-10T17:45:59.914Z,7.70
2018-08-10T17:48:28.390Z,7.77
2018-08-10T17:50:57.000Z,8.07
2018-08-10T17:53:25.790Z,8.63
2018-08-10T17:55:54.591Z,8.43
2018-08-10T17:58:23.643Z,8.23
2018-08-10T18:00:52.770Z,8.93
2018-08-10T18:03:21.803Z,8.40
2018-08-10T18:05:50.324Z,8.00
2018-08-10T18:08:19.236Z,9.20
2018-08-10T18:10:49.362Z,8.70
2018-08-10T18:13:17.942Z,8.53
2018-08-10T18:15:46.631Z,9.47
2018-08-10T18:18:15.487Z,8.93
2018-08-10T18:20:45.431Z,9.17
2018-08-10T18:23:14.192Z,9.77
2018-08-10T18:25:42.737Z,9.50
2018-08-10T18:28:11.890Z,9.40
2018-08-10T18:30:40.736Z,10.23
2018-08-10T18:33:09.451Z,10.23
2018-08-10T18:35:38.485Z,10.03
2018-08-10T18:38:07.432Z,10.67
2018-08-10T18:40:36.935Z,10.80
2018-08-10T18:43:06.829Z,10.33
2018-08-10T18:45:35.648Z,10.77
2018-08-10T18:48:04.597Z,11.17
2018-08-10T18:50:33.300Z,12.03
2018-08-10T18:53:03.066Z,11.63
2018-08-10T18:55:32.033Z,11.60
2018-08-10T18:58:00.930Z,12.50
2018-08-10T19:00:30.357Z,12.37
2018-08-10T19:02:59.276Z,12.77
2018-08-10T19:05:28.555Z,12.70
2018-08-10T19:07:57.092Z,12.30
2018-08-10T19:10:27.870Z,13.10
2018-08-10T19:12:56.576Z,14.33
2018-08-10T19:15:25.216Z,13.83
2018-08-10T19:17:54.846Z,13.93
2018-08-10T19:20:23.360Z,14.57
2018-08-10T19:22:52.003Z,15.90
2018-08-10T19:25:20.741Z,15.63
2018-08-10T19:27:49.890Z,15.60
2018-08-10T19:30:20.817Z,15.57
2018-08-10T19:32:50.692Z,15.00
2018-08-10T19:35:20.380Z,15.60
2018-08-10T19:37:49.692Z,16.87
2018-08-10T19:40:22.074Z,16.37
2018-08-10T19:42:50.796Z,17.00
2018-08-10T19:45:19.288Z,17.07
2018-08-10T19:47:47.830Z,18.23
2018-08-10T19:50:17.740Z,17.70
2018-08-10T19:52:47.430Z,16.50
2018-08-10T19:55:16.088Z,18.57
2018-08-10T19:57:44.740Z,17.87
2018-08-10T20:00:19.417Z,18.20
2018-08-10T20:02:51.661Z,17.87
2018-08-10T20:05:20.572Z,18.07
2018-08-10T20:07:49.328Z,17.93
2018-08-10T20:10:18.188Z,18.90
2018-08-10T20:12:46.676Z,18.37
2018-08-10T20:15:18.593Z,19.23
2018-08-10T20:17:47.461Z,19.60
2018-08-10T20:20:17.763Z,18.83
2018-08-10T20:22:46.996Z,18.83
2018-08-10T20:25:16.233Z,19.33
2018-08-10T20:27:45.241Z,20.33
2018-08-10T20:30:15.949Z,20.57
2018-08-10T20:32:44.969Z,18.70
2018-08-10T20:35:15.044Z,19.40
2018-08-10T20:37:43.793Z,20.13
2018-08-10T20:40:15.151Z,18.43
2018-08-10T20:42:44.329Z,19.27
2018-08-10T20:45:13.414Z,19.73
2018-08-10T20:47:42.225Z,19.80
2018-08-10T20:50:15.573Z,19.27
2018-08-10T20:52:44.945Z,19.57
2018-08-10T20:55:13.711Z,20.63
2018-08-10T20:57:43.234Z,18.90
2018-08-10T21:00:12.459Z,19.67
2018-08-10T21:02:42.286Z,17.80
2018-08-10T21:05:11.141Z,19.90
2018-08-10T21:07:41.672Z,20.20
2018-08-10T21:10:12.873Z,18.83
2018-08-10T21:12:42.920Z,19.70
2018-08-10T21:15:12.804Z,22.17
2018-08-10T21:17:42.409Z,22.33
2018-08-10T21:20:13.076Z,22.80
2018-08-10T21:22:42.168Z,22.50
2018-08-10T21:25:12.383Z,22.07
2018-08-10T21:27:41.431Z,24.73
2018-08-10T21:30:12.961Z,23.40
2018-08-10T21:32:41.627Z,23.43
2018-08-10T21:35:10.822Z,23.57
2018-08-10T21:37:40.716Z,22.47
2018-08-10T21:40:10.232Z,22.27
2018-08-10T21:42:39.114Z,22.10
2018-08-10T21:45:08.231Z,21.10
2018-08-10T21:47:37.279Z,20.93
2018-08-10T21:50:07.579Z,22.10
2018-08-10T21:52:36.355Z,22.00
